sensor_id;sensor_type;location;lat;lon;timestamp;P1;durP1;ratioP1;P2;durP2;ratioP2
23802;SDS011;12082;51.786;6.018;2024-02-21T00:00:36;31.73;;;11.90;;
23802;SDS011;12082;51.786;6.018;2024-02-21T00:03:03;30.33;;;11.07;;
23802;SDS011;12082;51.786;6.018;2024-02-21T00:05:29;26.53;;;10.97;;
23802;SDS011;12082;51.786;6.018;2024-02-21T00:07:55;23.43;;;10.93;;
23802;SDS011;12082;51.786;6.018;2024-02-21T00:10:22;20.23;;;10.67;;
23802;SDS011;12082;51.786;6.018;2024-02-21T00:12:48;24.10;;;10.57;;
23802;SDS011;12082;51.786;6.018;2024-02-21T00:15:14;27.23;;;11.33;;
23802;SDS011;12082;51.786;6.018;2024-02-21T00:17:40;21.47;;;10.90;;
23802;SDS011;12082;51.786;6.018;2024-02-21T00:20:06;18.57;;;9.60;;
23802;SDS011;12082;51.786;6.018;2024-02-21T00:22:32;23.77;;;11.13;;
23802;SDS011;12082;51.786;6.018;2024-02-21T00:24:58;25.47;;;10.83;;
23802;SDS011;12082;51.786;6.018;2024-02-21T00:27:24;16.87;;;9.20;;
23802;SDS011;12082;51.786;6.018;2024-02-21T00:29:50;21.30;;;9.17;;
23802;SDS011;12082;51.786;6.018;2024-02-21T00:32:15;22.33;;;10.73;;
23802;SDS011;12082;51.786;6.018;2024-02-21T00:34:41;20.53;;;9.80;;
23802;SDS011;12082;51.786;6.018;2024-02-21T00:37:06;20.07;;;10.30;;
23802;SDS011;12082;51.786;6.018;2024-02-21T00:39:32;22.27;;;9.83;;
23802;SDS011;12082;51.786;6.018;2024-02-21T00:41:57;26.13;;;11.47;;
23802;SDS011;12082;51.786;6.018;2024-02-21T00:44:23;23.43;;;10.87;;
23802;SDS011;12082;51.786;6.018;2024-02-21T00:46:49;28.50;;;10.70;;
23802;SDS011;12082;51.786;6.018;2024-02-21T00:49:14;25.37;;;10.37;;
23802;SDS011;12082;51.786;6.018;2024-02-21T00:51:40;25.37;;;10.50;;
23802;SDS011;12082;51.786;6.018;2024-02-21T00:54:05;22.40;;;9.93;;
23802;SDS011;12082;51.786;6.018;2024-02-21T00:56:31;20.57;;;10.97;;
23802;SDS011;12082;51.786;6.018;2024-02-21T00:58:57;25.00;;;10.20;;
23802;SDS011;12082;51.786;6.018;2024-02-21T01:01:25;19.67;;;10.37;;
23802;SDS011;12082;51.786;6.018;2024-02-21T01:03:51;36.70;;;10.97;;
23802;SDS011;12082;51.786;6.018;2024-02-21T01:06:20;27.33;;;10.67;;
23802;SDS011;12082;51.786;6.018;2024-02-21T01:08:48;36.07;;;11.43;;
23802;SDS011;12082;51.786;6.018;2024-02-21T01:11:14;19.37;;;9.43;;
23802;SDS011;12082;51.786;6.018;2024-02-21T01:13:40;23.57;;;10.27;;
23802;SDS011;12082;51.786;6.018;2024-02-21T01:16:06;25.73;;;10.83;;
23802;SDS011;12082;51.786;6.018;2024-02-21T01:18:32;17.27;;;9.90;;
23802;SDS011;12082;51.786;6.018;2024-02-21T01:20:58;21.17;;;9.17;;
23802;SDS011;12082;51.786;6.018;2024-02-21T01:23:24;27.40;;;10.30;;
23802;SDS011;12082;51.786;6.018;2024-02-21T01:25:50;23.43;;;9.97;;
23802;SDS011;12082;51.786;6.018;2024-02-21T01:28:16;21.77;;;10.87;;
23802;SDS011;12082;51.786;6.018;2024-02-21T01:30:42;18.23;;;10.00;;
23802;SDS011;12082;51.786;6.018;2024-02-21T01:33:07;23.53;;;10.37;;
23802;SDS011;12082;51.786;6.018;2024-02-21T01:35:34;22.90;;;11.20;;
23802;SDS011;12082;51.786;6.018;2024-02-21T01:37:59;22.57;;;10.40;;
23802;SDS011;12082;51.786;6.018;2024-02-21T01:40:25;21.80;;;9.83;;
23802;SDS011;12082;51.786;6.018;2024-02-21T01:42:50;17.70;;;9.30;;
23802;SDS011;12082;51.786;6.018;2024-02-21T01:45:19;20.63;;;9.90;;
23802;SDS011;12082;51.786;6.018;2024-02-21T01:47:45;21.80;;;9.47;;
23802;SDS011;12082;51.786;6.018;2024-02-21T01:50:11;17.90;;;10.17;;
23802;SDS011;12082;51.786;6.018;2024-02-21T01:52:38;23.80;;;9.87;;
23802;SDS011;12082;51.786;6.018;2024-02-21T01:55:05;21.00;;;9.37;;
23802;SDS011;12082;51.786;6.018;2024-02-21T01:57:31;24.50;;;9.93;;
23802;SDS011;12082;51.786;6.018;2024-02-21T01:59:57;20.60;;;9.70;;
23802;SDS011;12082;51.786;6.018;2024-02-21T02:02:23;27.27;;;9.13;;
23802;SDS011;12082;51.786;6.018;2024-02-21T02:04:49;24.20;;;9.70;;
23802;SDS011;12082;51.786;6.018;2024-02-21T02:07:16;16.43;;;8.30;;
23802;SDS011;12082;51.786;6.018;2024-02-21T02:09:42;27.17;;;9.30;;
23802;SDS011;12082;51.786;6.018;2024-02-21T02:12:08;20.80;;;9.53;;
23802;SDS011;12082;51.786;6.018;2024-02-21T02:14:34;27.80;;;8.97;;
23802;SDS011;12082;51.786;6.018;2024-02-21T02:16:59;17.00;;;9.60;;
23802;SDS011;12082;51.786;6.018;2024-02-21T02:19:25;21.13;;;9.00;;
23802;SDS011;12082;51.786;6.018;2024-02-21T02:21:51;17.00;;;8.43;;
23802;SDS011;12082;51.786;6.018;2024-02-21T02:24:21;19.63;;;8.27;;
23802;SDS011;12082;51.786;6.018;2024-02-21T02:26:52;21.03;;;9.40;;
23802;SDS011;12082;51.786;6.018;2024-02-21T02:29:18;17.33;;;8.10;;
23802;SDS011;12082;51.786;6.018;2024-02-21T02:31:44;18.33;;;8.00;;
23802;SDS011;12082;51.786;6.018;2024-02-21T02:34:10;17.90;;;8.40;;
23802;SDS011;12082;51.786;6.018;2024-02-21T02:36:35;16.27;;;7.40;;
23802;SDS011;12082;51.786;6.018;2024-02-21T02:39:01;21.77;;;8.47;;
23802;SDS011;12082;51.786;6.018;2024-02-21T02:41:27;18.27;;;8.40;;
23802;SDS011;12082;51.786;6.018;2024-02-21T02:43:52;18.50;;;7.83;;
23802;SDS011;12082;51.786;6.018;2024-02-21T02:46:18;17.33;;;9.13;;
23802;SDS011;12082;51.786;6.018;2024-02-21T02:48:43;23.60;;;8.10;;
23802;SDS011;12082;51.786;6.018;2024-02-21T02:51:10;18.67;;;7.07;;
23802;SDS011;12082;51.786;6.018;2024-02-21T02:53:35;11.73;;;7.43;;
23802;SDS011;12082;51.786;6.018;2024-02-21T02:56:01;15.07;;;7.70;;
23802;SDS011;12082;51.786;6.018;2024-02-21T02:58:27;19.57;;;6.90;;
23802;SDS011;12082;51.786;6.018;2024-02-21T03:00:53;15.00;;;7.10;;
23802;SDS011;12082;51.786;6.018;2024-02-21T03:03:19;26.27;;;7.23;;
23802;SDS011;12082;51.786;6.018;2024-02-21T03:05:44;17.50;;;6.83;;
23802;SDS011;12082;51.786;6.018;2024-02-21T03:08:11;10.77;;;6.30;;
23802;SDS011;12082;51.786;6.018;2024-02-21T03:10:36;13.67;;;6.00;;
23802;SDS011;12082;51.786;6.018;2024-02-21T03:13:02;15.43;;;6.87;;
23802;SDS011;12082;51.786;6.018;2024-02-21T03:15:28;18.03;;;7.23;;
23802;SDS011;12082;51.786;6.018;2024-02-21T03:17:54;11.87;;;5.73;;
23802;SDS011;12082;51.786;6.018;2024-02-21T03:20:19;18.90;;;7.33;;
23802;SDS011;12082;51.786;6.018;2024-02-21T03:22:45;12.60;;;6.70;;
23802;SDS011;12082;51.786;6.018;2024-02-21T03:25:11;11.73;;;6.27;;
23802;SDS011;12082;51.786;6.018;2024-02-21T03:27:37;12.53;;;6.27;;
23802;SDS011;12082;51.786;6.018;2024-02-21T03:30:04;14.27;;;6.23;;
23802;SDS011;12082;51.786;6.018;2024-02-21T03:32:30;11.47;;;5.50;;
23802;SDS011;12082;51.786;6.018;2024-02-21T03:34:55;11.40;;;5.90;;
23802;SDS011;12082;51.786;6.018;2024-02-21T03:37:21;14.00;;;5.73;;
23802;SDS011;12082;51.786;6.018;2024-02-21T03:39:47;17.23;;;6.20;;
23802;SDS011;12082;51.786;6.018;2024-02-21T03:42:12;13.33;;;5.53;;
23802;SDS011;12082;51.786;6.018;2024-02-21T03:44:38;14.70;;;5.73;;
23802;SDS011;12082;51.786;6.018;2024-02-21T03:47:04;13.67;;;6.20;;
23802;SDS011;12082;51.786;6.018;2024-02-21T03:49:30;21.73;;;6.47;;
23802;SDS011;12082;51.786;6.018;2024-02-21T03:51:55;12.93;;;5.70;;
23802;SDS011;12082;51.786;6.018;2024-02-21T03:54:21;11.10;;;6.13;;
23802;SDS011;12082;51.786;6.018;2024-02-21T03:56:47;12.17;;;5.13;;
23802;SDS011;12082;51.786;6.018;2024-02-21T03:59:13;11.03;;;5.67;;
23802;SDS011;12082;51.786;6.018;2024-02-21T04:01:39;15.03;;;6.30;;
23802;SDS011;12082;51.786;6.018;2024-02-21T04:04:05;15.83;;;6.57;;
23802;SDS011;12082;51.786;6.018;2024-02-21T04:06:30;17.27;;;6.23;;
23802;SDS011;12082;51.786;6.018;2024-02-21T04:08:56;13.97;;;5.50;;
23802;SDS011;12082;51.786;6.018;2024-02-21T04:11:22;19.57;;;6.00;;
23802;SDS011;12082;51.786;6.018;2024-02-21T04:13:47;13.13;;;6.10;;
23802;SDS011;12082;51.786;6.018;2024-02-21T04:16:15;12.30;;;4.90;;
23802;SDS011;12082;51.786;6.018;2024-02-21T04:18:41;11.43;;;5.63;;
23802;SDS011;12082;51.786;6.018;2024-02-21T04:21:07;10.30;;;5.50;;
23802;SDS011;12082;51.786;6.018;2024-02-21T04:23:33;11.60;;;5.90;;
23802;SDS011;12082;51.786;6.018;2024-02-21T04:25:59;17.30;;;5.07;;
23802;SDS011;12082;51.786;6.018;2024-02-21T04:28:24;13.10;;;5.23;;
23802;SDS011;12082;51.786;6.018;2024-02-21T04:30:50;13.57;;;5.67;;
23802;SDS011;12082;51.786;6.018;2024-02-21T04:33:16;16.40;;;6.13;;
23802;SDS011;12082;51.786;6.018;2024-02-21T04:35:41;13.17;;;6.23;;
23802;SDS011;12082;51.786;6.018;2024-02-21T04:38:07;11.27;;;5.27;;
23802;SDS011;12082;51.786;6.018;2024-02-21T04:40:32;11.83;;;4.83;;
23802;SDS011;12082;51.786;6.018;2024-02-21T04:42:58;12.57;;;5.60;;
23802;SDS011;12082;51.786;6.018;2024-02-21T04:45:24;11.80;;;5.53;;
23802;SDS011;12082;51.786;6.018;2024-02-21T04:47:50;12.17;;;4.47;;
23802;SDS011;12082;51.786;6.018;2024-02-21T04:50:15;8.30;;;5.13;;
23802;SDS011;12082;51.786;6.018;2024-02-21T04:52:41;11.50;;;4.80;;
23802;SDS011;12082;51.786;6.018;2024-02-21T04:55:07;12.10;;;5.63;;
23802;SDS011;12082;51.786;6.018;2024-02-21T04:57:33;9.43;;;5.33;;
23802;SDS011;12082;51.786;6.018;2024-02-21T04:59:59;8.23;;;4.67;;
23802;SDS011;12082;51.786;6.018;2024-02-21T05:02:24;7.73;;;5.03;;
23802;SDS011;12082;51.786;6.018;2024-02-21T05:04:51;12.60;;;5.30;;
23802;SDS011;12082;51.786;6.018;2024-02-21T05:07:17;10.47;;;5.70;;
23802;SDS011;12082;51.786;6.018;2024-02-21T05:09:44;11.30;;;5.70;;
23802;SDS011;12082;51.786;6.018;2024-02-21T05:12:10;12.00;;;5.97;;
23802;SDS011;12082;51.786;6.018;2024-02-21T05:14:36;8.73;;;5.53;;
23802;SDS011;12082;51.786;6.018;2024-02-21T05:17:02;13.03;;;5.70;;
23802;SDS011;12082;51.786;6.018;2024-02-21T05:19:28;8.17;;;5.20;;
23802;SDS011;12082;51.786;6.018;2024-02-21T05:21:54;13.07;;;5.83;;
23802;SDS011;12082;51.786;6.018;2024-02-21T05:24:19;14.97;;;5.43;;
23802;SDS011;12082;51.786;6.018;2024-02-21T05:26:45;12.93;;;5.13;;
23802;SDS011;12082;51.786;6.018;2024-02-21T05:29:11;14.40;;;5.87;;
23802;SDS011;12082;51.786;6.018;2024-02-21T05:32:09;8.57;;;5.27;;
23802;SDS011;12082;51.786;6.018;2024-02-21T05:34:28;12.27;;;5.20;;
23802;SDS011;12082;51.786;6.018;2024-02-21T05:36:54;17.00;;;6.47;;
23802;SDS011;12082;51.786;6.018;2024-02-21T05:39:20;18.40;;;5.60;;
23802;SDS011;12082;51.786;6.018;2024-02-21T05:41:47;13.00;;;5.10;;
23802;SDS011;12082;51.786;6.018;2024-02-21T05:44:13;17.60;;;6.10;;
23802;SDS011;12082;51.786;6.018;2024-02-21T05:46:39;12.17;;;6.13;;
23802;SDS011;12082;51.786;6.018;2024-02-21T05:49:04;9.27;;;5.60;;
23802;SDS011;12082;51.786;6.018;2024-02-21T05:51:34;15.00;;;6.13;;
23802;SDS011;12082;51.786;6.018;2024-02-21T05:54:00;15.67;;;6.97;;
23802;SDS011;12082;51.786;6.018;2024-02-21T05:56:26;14.43;;;6.03;;
23802;SDS011;12082;51.786;6.018;2024-02-21T05:58:52;19.90;;;6.37;;
23802;SDS011;12082;51.786;6.018;2024-02-21T06:01:17;12.57;;;6.97;;
23802;SDS011;12082;51.786;6.018;2024-02-21T06:03:43;19.77;;;7.73;;
23802;SDS011;12082;51.786;6.018;2024-02-21T06:06:08;15.03;;;6.77;;
23802;SDS011;12082;51.786;6.018;2024-02-21T06:08:34;13.20;;;7.17;;
23802;SDS011;12082;51.786;6.018;2024-02-21T06:11:00;18.77;;;7.10;;
23802;SDS011;12082;51.786;6.018;2024-02-21T06:13:25;14.83;;;7.63;;
23802;SDS011;12082;51.786;6.018;2024-02-21T06:15:51;19.97;;;8.57;;
23802;SDS011;12082;51.786;6.018;2024-02-21T06:18:17;15.53;;;7.60;;
23802;SDS011;12082;51.786;6.018;2024-02-21T06:20:43;16.10;;;7.47;;
23802;SDS011;12082;51.786;6.018;2024-02-21T06:23:09;20.07;;;8.60;;
23802;SDS011;12082;51.786;6.018;2024-02-21T06:25:35;20.63;;;7.87;;
23802;SDS011;12082;51.786;6.018;2024-02-21T06:28:00;25.90;;;9.37;;
23802;SDS011;12082;51.786;6.018;2024-02-21T06:30:26;17.93;;;9.10;;
23802;SDS011;12082;51.786;6.018;2024-02-21T06:32:52;19.00;;;8.70;;
23802;SDS011;12082;51.786;6.018;2024-02-21T06:35:21;16.47;;;8.07;;
23802;SDS011;12082;51.786;6.018;2024-02-21T06:37:46;20.00;;;8.57;;
23802;SDS011;12082;51.786;6.018;2024-02-21T06:40:16;18.07;;;8.13;;
23802;SDS011;12082;51.786;6.018;2024-02-21T06:42:48;21.27;;;9.03;;
23802;SDS011;12082;51.786;6.018;2024-02-21T06:45:14;17.07;;;8.70;;
23802;SDS011;12082;51.786;6.018;2024-02-21T06:47:40;19.87;;;8.73;;
23802;SDS011;12082;51.786;6.018;2024-02-21T06:50:06;21.00;;;8.57;;
23802;SDS011;12082;51.786;6.018;2024-02-21T06:52:32;17.27;;;7.13;;
23802;SDS011;12082;51.786;6.018;2024-02-21T06:54:57;21.50;;;7.97;;
23802;SDS011;12082;51.786;6.018;2024-02-21T06:57:23;18.33;;;8.23;;
23802;SDS011;12082;51.786;6.018;2024-02-21T06:59:49;19.27;;;7.53;;
23802;SDS011;12082;51.786;6.018;2024-02-21T07:02:14;16.83;;;7.87;;
23802;SDS011;12082;51.786;6.018;2024-02-21T07:04:40;19.20;;;8.33;;
23802;SDS011;12082;51.786;6.018;2024-02-21T07:07:06;12.97;;;7.47;;
23802;SDS011;12082;51.786;6.018;2024-02-21T07:09:31;15.73;;;7.17;;
23802;SDS011;12082;51.786;6.018;2024-02-21T07:11:59;15.83;;;8.17;;
23802;SDS011;12082;51.786;6.018;2024-02-21T07:14:25;14.60;;;7.70;;
23802;SDS011;12082;51.786;6.018;2024-02-21T07:16:53;21.80;;;7.93;;
23802;SDS011;12082;51.786;6.018;2024-02-21T07:19:19;18.20;;;7.63;;
23802;SDS011;12082;51.786;6.018;2024-02-21T07:21:45;17.40;;;7.93;;
23802;SDS011;12082;51.786;6.018;2024-02-21T07:24:11;14.13;;;7.77;;
23802;SDS011;12082;51.786;6.018;2024-02-21T07:26:37;12.43;;;7.07;;
23802;SDS011;12082;51.786;6.018;2024-02-21T07:29:06;17.87;;;7.27;;
23802;SDS011;12082;51.786;6.018;2024-02-21T07:31:31;14.50;;;6.80;;
23802;SDS011;12082;51.786;6.018;2024-02-21T07:34:03;17.40;;;7.30;;
23802;SDS011;12082;51.786;6.018;2024-02-21T07:36:29;16.00;;;7.60;;
23802;SDS011;12082;51.786;6.018;2024-02-21T07:38:58;14.50;;;7.07;;
23802;SDS011;12082;51.786;6.018;2024-02-21T07:41:24;14.47;;;6.97;;
23802;SDS011;12082;51.786;6.018;2024-02-21T07:43:50;20.27;;;8.00;;
23802;SDS011;12082;51.786;6.018;2024-02-21T07:46:17;11.50;;;7.53;;
23802;SDS011;12082;51.786;6.018;2024-02-21T07:48:43;14.37;;;7.37;;
23802;SDS011;12082;51.786;6.018;2024-02-21T07:51:10;16.70;;;7.73;;
23802;SDS011;12082;51.786;6.018;2024-02-21T07:53:35;18.17;;;8.40;;
23802;SDS011;12082;51.786;6.018;2024-02-21T07:56:01;15.27;;;7.43;;
23802;SDS011;12082;51.786;6.018;2024-02-21T07:58:27;20.13;;;8.13;;
23802;SDS011;12082;51.786;6.018;2024-02-21T08:00:52;14.60;;;8.40;;
23802;SDS011;12082;51.786;6.018;2024-02-21T08:03:18;14.70;;;7.40;;
23802;SDS011;12082;51.786;6.018;2024-02-21T08:05:43;14.53;;;7.63;;
23802;SDS011;12082;51.786;6.018;2024-02-21T08:08:09;18.07;;;8.77;;
23802;SDS011;12082;51.786;6.018;2024-02-21T08:10:35;18.67;;;9.13;;
23802;SDS011;12082;51.786;6.018;2024-02-21T08:13:00;15.93;;;7.90;;
23802;SDS011;12082;51.786;6.018;2024-02-21T08:15:26;17.80;;;9.17;;
23802;SDS011;12082;51.786;6.018;2024-02-21T08:17:54;15.83;;;8.17;;
23802;SDS011;12082;51.786;6.018;2024-02-21T08:20:24;16.43;;;9.10;;
23802;SDS011;12082;51.786;6.018;2024-02-21T08:22:50;19.10;;;9.83;;
23802;SDS011;12082;51.786;6.018;2024-02-21T08:25:15;20.90;;;8.83;;
23802;SDS011;12082;51.786;6.018;2024-02-21T08:27:41;13.63;;;7.57;;
23802;SDS011;12082;51.786;6.018;2024-02-21T08:30:07;22.80;;;8.07;;
23802;SDS011;12082;51.786;6.018;2024-02-21T08:32:33;15.97;;;8.50;;
23802;SDS011;12082;51.786;6.018;2024-02-21T08:35:00;12.23;;;6.90;;
23802;SDS011;12082;51.786;6.018;2024-02-21T08:37:29;12.53;;;7.27;;
23802;SDS011;12082;51.786;6.018;2024-02-21T08:39:55;11.23;;;7.00;;
23802;SDS011;12082;51.786;6.018;2024-02-21T08:42:20;16.27;;;7.40;;
23802;SDS011;12082;51.786;6.018;2024-02-21T08:44:46;17.70;;;7.10;;
23802;SDS011;12082;51.786;6.018;2024-02-21T08:47:12;13.40;;;7.17;;
23802;SDS011;12082;51.786;6.018;2024-02-21T08:49:37;14.13;;;7.13;;
23802;SDS011;12082;51.786;6.018;2024-02-21T08:52:03;18.37;;;7.37;;
23802;SDS011;12082;51.786;6.018;2024-02-21T08:54:30;11.70;;;6.97;;
23802;SDS011;12082;51.786;6.018;2024-02-21T08:56:57;15.03;;;7.17;;
23802;SDS011;12082;51.786;6.018;2024-02-21T08:59:23;12.10;;;6.60;;
23802;SDS011;12082;51.786;6.018;2024-02-21T09:01:49;13.10;;;7.03;;
23802;SDS011;12082;51.786;6.018;2024-02-21T09:04:16;15.23;;;6.97;;
23802;SDS011;12082;51.786;6.018;2024-02-21T09:06:42;13.60;;;6.77;;
23802;SDS011;12082;51.786;6.018;2024-02-21T09:09:08;12.47;;;6.97;;
23802;SDS011;12082;51.786;6.018;2024-02-21T09:11:34;11.97;;;6.50;;
23802;SDS011;12082;51.786;6.018;2024-02-21T09:14:00;8.33;;;6.07;;
23802;SDS011;12082;51.786;6.018;2024-02-21T09:16:28;12.63;;;6.53;;
23802;SDS011;12082;51.786;6.018;2024-02-21T09:18:57;9.87;;;6.33;;
23802;SDS011;12082;51.786;6.018;2024-02-21T09:21:22;11.50;;;6.33;;
23802;SDS011;12082;51.786;6.018;2024-02-21T09:23:48;13.10;;;5.90;;
23802;SDS011;12082;51.786;6.018;2024-02-21T09:26:14;11.00;;;7.00;;
23802;SDS011;12082;51.786;6.018;2024-02-21T09:28:41;12.93;;;6.50;;
23802;SDS011;12082;51.786;6.018;2024-02-21T09:31:07;12.47;;;6.23;;
23802;SDS011;12082;51.786;6.018;2024-02-21T09:33:33;16.67;;;6.70;;
23802;SDS011;12082;51.786;6.018;2024-02-21T09:35:58;12.03;;;7.17;;
23802;SDS011;12082;51.786;6.018;2024-02-21T09:38:24;12.77;;;6.60;;
23802;SDS011;12082;51.786;6.018;2024-02-21T09:40:54;11.13;;;6.53;;
23802;SDS011;12082;51.786;6.018;2024-02-21T09:43:25;13.50;;;6.73;;
23802;SDS011;12082;51.786;6.018;2024-02-21T09:45:51;10.20;;;5.67;;
23802;SDS011;12082;51.786;6.018;2024-02-21T09:48:34;15.47;;;6.23;;
23802;SDS011;12082;51.786;6.018;2024-02-21T09:51:22;9.30;;;5.90;;
23802;SDS011;12082;51.786;6.018;2024-02-21T09:53:49;12.47;;;6.00;;
23802;SDS011;12082;51.786;6.018;2024-02-21T09:56:18;9.37;;;6.50;;
23802;SDS011;12082;51.786;6.018;2024-02-21T09:58:43;10.07;;;5.30;;
23802;SDS011;12082;51.786;6.018;2024-02-21T10:01:09;18.53;;;6.43;;
23802;SDS011;12082;51.786;6.018;2024-02-21T10:03:34;8.10;;;5.00;;
23802;SDS011;12082;51.786;6.018;2024-02-21T10:06:00;9.13;;;5.37;;
23802;SDS011;12082;51.786;6.018;2024-02-21T10:08:26;9.17;;;5.63;;
23802;SDS011;12082;51.786;6.018;2024-02-21T10:10:52;7.20;;;4.70;;
23802;SDS011;12082;51.786;6.018;2024-02-21T10:13:24;8.53;;;4.77;;
23802;SDS011;12082;51.786;6.018;2024-02-21T10:18:27;9.53;;;5.93;;
23802;SDS011;12082;51.786;6.018;2024-02-21T10:21:03;12.67;;;6.60;;
23802;SDS011;12082;51.786;6.018;2024-02-21T10:23:40;13.17;;;6.00;;
23802;SDS011;12082;51.786;6.018;2024-02-21T10:26:07;8.53;;;5.47;;
23802;SDS011;12082;51.786;6.018;2024-02-21T10:28:32;7.73;;;5.27;;
23802;SDS011;12082;51.786;6.018;2024-02-21T10:30:58;8.80;;;5.60;;
23802;SDS011;12082;51.786;6.018;2024-02-21T10:33:24;9.33;;;6.63;;
23802;SDS011;12082;51.786;6.018;2024-02-21T10:35:50;11.20;;;5.47;;
23802;SDS011;12082;51.786;6.018;2024-02-21T10:38:16;14.57;;;7.10;;
23802;SDS011;12082;51.786;6.018;2024-02-21T10:40:42;9.40;;;6.83;;
23802;SDS011;12082;51.786;6.018;2024-02-21T10:43:12;10.43;;;6.97;;
23802;SDS011;12082;51.786;6.018;2024-02-21T10:45:38;15.80;;;6.50;;
23802;SDS011;12082;51.786;6.018;2024-02-21T10:56:06;9.83;;;5.70;;
23802;SDS011;12082;51.786;6.018;2024-02-21T10:58:43;12.50;;;5.90;;
23802;SDS011;12082;51.786;6.018;2024-02-21T11:01:10;7.27;;;4.90;;
23802;SDS011;12082;51.786;6.018;2024-02-21T11:03:39;9.57;;;5.17;;
23802;SDS011;12082;51.786;6.018;2024-02-21T11:06:08;9.40;;;5.00;;
23802;SDS011;12082;51.786;6.018;2024-02-21T11:08:35;11.20;;;6.53;;
23802;SDS011;12082;51.786;6.018;2024-02-21T11:11:01;12.37;;;5.50;;
23802;SDS011;12082;51.786;6.018;2024-02-21T11:13:30;8.70;;;4.83;;
23802;SDS011;12082;51.786;6.018;2024-02-21T11:16:09;13.07;;;5.60;;
23802;SDS011;12082;51.786;6.018;2024-02-21T11:18:37;10.40;;;5.10;;
23802;SDS011;12082;51.786;6.018;2024-02-21T11:21:03;7.97;;;4.80;;
23802;SDS011;12082;51.786;6.018;2024-02-21T11:23:32;10.27;;;5.27;;
23802;SDS011;12082;51.786;6.018;2024-02-21T11:26:05;8.47;;;4.80;;
23802;SDS011;12082;51.786;6.018;2024-02-21T11:28:31;10.47;;;5.40;;
23802;SDS011;12082;51.786;6.018;2024-02-21T11:31:06;10.13;;;4.57;;
23802;SDS011;12082;51.786;6.018;2024-02-21T11:33:34;11.30;;;5.93;;
23802;SDS011;12082;51.786;6.018;2024-02-21T11:35:59;10.37;;;5.23;;
23802;SDS011;12082;51.786;6.018;2024-02-21T11:38:25;11.20;;;4.90;;
23802;SDS011;12082;51.786;6.018;2024-02-21T11:40:51;13.77;;;5.50;;
23802;SDS011;12082;51.786;6.018;2024-02-21T11:43:16;13.67;;;5.50;;
23802;SDS011;12082;51.786;6.018;2024-02-21T11:45:42;7.27;;;4.77;;
23802;SDS011;12082;51.786;6.018;2024-02-21T11:48:08;8.17;;;4.90;;
23802;SDS011;12082;51.786;6.018;2024-02-21T11:50:36;8.13;;;5.00;;
23802;SDS011;12082;51.786;6.018;2024-02-21T11:53:04;14.53;;;5.07;;
23802;SDS011;12082;51.786;6.018;2024-02-21T11:55:30;9.60;;;5.03;;
23802;SDS011;12082;51.786;6.018;2024-02-21T11:57:56;11.13;;;4.83;;
23802;SDS011;12082;51.786;6.018;2024-02-21T12:00:22;8.77;;;5.30;;
23802;SDS011;12082;51.786;6.018;2024-02-21T12:02:49;10.73;;;5.00;;
23802;SDS011;12082;51.786;6.018;2024-02-21T12:05:15;8.60;;;4.60;;
23802;SDS011;12082;51.786;6.018;2024-02-21T12:07:41;7.13;;;4.67;;
23802;SDS011;12082;51.786;6.018;2024-02-21T12:10:10;7.43;;;4.13;;
23802;SDS011;12082;51.786;6.018;2024-02-21T12:12:37;12.27;;;5.07;;
23802;SDS011;12082;51.786;6.018;2024-02-21T12:15:04;8.60;;;4.70;;
23802;SDS011;12082;51.786;6.018;2024-02-21T12:17:32;11.13;;;4.63;;
23802;SDS011;12082;51.786;6.018;2024-02-21T12:20:03;10.07;;;4.00;;
23802;SDS011;12082;51.786;6.018;2024-02-21T12:22:35;11.40;;;4.97;;
23802;SDS011;12082;51.786;6.018;2024-02-21T12:25:04;8.97;;;4.37;;
23802;SDS011;12082;51.786;6.018;2024-02-21T12:27:40;8.23;;;4.17;;
23802;SDS011;12082;51.786;6.018;2024-02-21T12:30:06;11.40;;;5.17;;
23802;SDS011;12082;51.786;6.018;2024-02-21T12:32:35;11.47;;;4.50;;
23802;SDS011;12082;51.786;6.018;2024-02-21T12:35:01;13.13;;;5.30;;
23802;SDS011;12082;51.786;6.018;2024-02-21T12:37:27;14.03;;;4.87;;
23802;SDS011;12082;51.786;6.018;2024-02-21T12:39:53;11.57;;;4.40;;
23802;SDS011;12082;51.786;6.018;2024-02-21T12:42:18;8.17;;;4.10;;
23802;SDS011;12082;51.786;6.018;2024-02-21T12:44:44;11.97;;;4.53;;
23802;SDS011;12082;51.786;6.018;2024-02-21T12:47:10;8.00;;;4.30;;
23802;SDS011;12082;51.786;6.018;2024-02-21T12:49:36;10.23;;;4.10;;
23802;SDS011;12082;51.786;6.018;2024-02-21T12:52:02;8.77;;;4.87;;
23802;SDS011;12082;51.786;6.018;2024-02-21T12:54:28;7.93;;;3.93;;
23802;SDS011;12082;51.786;6.018;2024-02-21T12:56:55;5.60;;;4.07;;
23802;SDS011;12082;51.786;6.018;2024-02-21T12:59:20;10.17;;;4.70;;
23802;SDS011;12082;51.786;6.018;2024-02-21T13:01:46;8.87;;;4.70;;
23802;SDS011;12082;51.786;6.018;2024-02-21T13:04:12;11.70;;;4.67;;
23802;SDS011;12082;51.786;6.018;2024-02-21T13:06:38;12.33;;;5.10;;
23802;SDS011;12082;51.786;6.018;2024-02-21T13:09:03;7.77;;;3.63;;
23802;SDS011;12082;51.786;6.018;2024-02-21T13:11:33;6.20;;;4.10;;
23802;SDS011;12082;51.786;6.018;2024-02-21T13:13:59;8.30;;;4.87;;
23802;SDS011;12082;51.786;6.018;2024-02-21T13:16:25;12.43;;;4.40;;
23802;SDS011;12082;51.786;6.018;2024-02-21T13:18:51;7.83;;;4.13;;
23802;SDS011;12082;51.786;6.018;2024-02-21T13:21:17;10.77;;;4.20;;
23802;SDS011;12082;51.786;6.018;2024-02-21T13:23:42;10.93;;;4.93;;
23802;SDS011;12082;51.786;6.018;2024-02-21T13:26:09;9.43;;;4.67;;
23802;SDS011;12082;51.786;6.018;2024-02-21T13:28:35;11.30;;;4.80;;
23802;SDS011;12082;51.786;6.018;2024-02-21T13:31:00;11.27;;;4.53;;
23802;SDS011;12082;51.786;6.018;2024-02-21T13:33:28;9.23;;;4.40;;
23802;SDS011;12082;51.786;6.018;2024-02-21T13:35:54;5.53;;;4.03;;
23802;SDS011;12082;51.786;6.018;2024-02-21T13:38:19;11.50;;;4.63;;
23802;SDS011;12082;51.786;6.018;2024-02-21T13:40:45;6.93;;;4.17;;
23802;SDS011;12082;51.786;6.018;2024-02-21T13:43:11;7.47;;;4.40;;
23802;SDS011;12082;51.786;6.018;2024-02-21T13:45:37;11.37;;;4.23;;
23802;SDS011;12082;51.786;6.018;2024-02-21T13:48:03;7.17;;;4.77;;
23802;SDS011;12082;51.786;6.018;2024-02-21T13:50:31;9.10;;;4.80;;
23802;SDS011;12082;51.786;6.018;2024-02-21T13:52:57;8.40;;;4.30;;
23802;SDS011;12082;51.786;6.018;2024-02-21T13:55:23;17.50;;;4.67;;
23802;SDS011;12082;51.786;6.018;2024-02-21T13:57:52;5.67;;;3.93;;
23802;SDS011;12082;51.786;6.018;2024-02-21T14:00:17;9.90;;;3.97;;
23802;SDS011;12082;51.786;6.018;2024-02-21T14:02:45;14.50;;;4.53;;
23802;SDS011;12082;51.786;6.018;2024-02-21T14:05:11;11.80;;;4.57;;
23802;SDS011;12082;51.786;6.018;2024-02-21T14:07:37;9.60;;;4.20;;
23802;SDS011;12082;51.786;6.018;2024-02-21T14:10:03;5.20;;;3.77;;
23802;SDS011;12082;51.786;6.018;2024-02-21T14:12:29;6.77;;;4.47;;
23802;SDS011;12082;51.786;6.018;2024-02-21T14:14:55;10.70;;;4.87;;
23802;SDS011;12082;51.786;6.018;2024-02-21T14:17:23;13.63;;;4.43;;
23802;SDS011;12082;51.786;6.018;2024-02-21T14:19:49;10.50;;;4.77;;
23802;SDS011;12082;51.786;6.018;2024-02-21T14:22:16;6.77;;;4.03;;
23802;SDS011;12082;51.786;6.018;2024-02-21T14:24:42;6.43;;;3.60;;
23802;SDS011;12082;51.786;6.018;2024-02-21T14:27:07;8.70;;;3.47;;
23802;SDS011;12082;51.786;6.018;2024-02-21T14:29:34;9.33;;;3.47;;
23802;SDS011;12082;51.786;6.018;2024-02-21T14:31:59;6.40;;;2.93;;
23802;SDS011;12082;51.786;6.018;2024-02-21T14:34:25;32.00;;;13.73;;
23802;SDS011;12082;51.786;6.018;2024-02-21T14:36:51;5.50;;;3.33;;
23802;SDS011;12082;51.786;6.018;2024-02-21T14:39:17;4.70;;;2.77;;
23802;SDS011;12082;51.786;6.018;2024-02-21T14:41:42;4.60;;;3.10;;